sensor_id;sensor_type;location;lat;lon;timestamp;pressure;altitude;pressure_sealevel;temperature;humidity
6090;BME280;3073;42.660;23.316;2023-07-31T00:00:29;94210.78;;;27.93;80.67
6090;BME280;3073;42.660;23.316;2023-07-31T00:03:04;94211.94;;;27.96;82.44
6090;BME280;3073;42.660;23.316;2023-07-31T00:05:31;94209.28;;;27.47;84.06
6090;BME280;3073;42.660;23.316;2023-07-31T00:07:57;94214.44;;;26.82;86.61
6090;BME280;3073;42.660;23.316;2023-07-31T00:10:26;94213.72;;;26.82;89.41
6090;BME280;3073;42.660;23.316;2023-07-31T00:12:57;94217.91;;;26.86;91.58
6090;BME280;3073;42.660;23.316;2023-07-31T00:15:24;94214.19;;;26.87;91.44
6090;BME280;3073;42.660;23.316;2023-07-31T00:17:51;94223.03;;;26.63;93.63
6090;BME280;3073;42.660;23.316;2023-07-31T00:20:17;94219.66;;;26.63;91.44
6090;BME280;3073;42.660;23.316;2023-07-31T00:22:44;94217.09;;;26.67;91.09
6090;BME280;3073;42.660;23.316;2023-07-31T00:25:11;94217.00;;;26.44;97.41
6090;BME280;3073;42.660;23.316;2023-07-31T00:27:39;94215.88;;;26.26;100.00
6090;BME280;3073;42.660;23.316;2023-07-31T00:30:10;94208.25;;;26.55;100.00
6090;BME280;3073;42.660;23.316;2023-07-31T00:32:37;94195.13;;;27.09;97.45
6090;BME280;3073;42.660;23.316;2023-07-31T00:35:05;94188.59;;;26.81;100.00
6090;BME280;3073;42.660;23.316;2023-07-31T00:37:32;94183.69;;;26.79;100.00
6090;BME280;3073;42.660;23.316;2023-07-31T00:39:58;94180.97;;;26.91;100.00
6090;BME280;3073;42.660;23.316;2023-07-31T00:42:25;94177.88;;;26.16;100.00
6090;BME280;3073;42.660;23.316;2023-07-31T00:44:54;94178.25;;;26.69;100.00
6090;BME280;3073;42.660;23.316;2023-07-31T00:47:20;94183.13;;;26.70;100.00
6090;BME280;3073;42.660;23.316;2023-07-31T00:49:48;94188.72;;;25.99;100.00
6090;BME280;3073;42.660;23.316;2023-07-31T00:52:15;94189.84;;;26.33;100.00
6090;BME280;3073;42.660;23.316;2023-07-31T00:54:42;94182.06;;;26.01;100.00
6090;BME280;3073;42.660;23.316;2023-07-31T00:57:10;94181.53;;;26.11;100.00
6090;BME280;3073;42.660;23.316;2023-07-31T00:59:37;94180.91;;;25.52;100.00
6090;BME280;3073;42.660;23.316;2023-07-31T01:02:05;94177.78;;;25.93;100.00
6090;BME280;3073;42.660;23.316;2023-07-31T01:04:32;94177.09;;;25.96;100.00
6090;BME280;3073;42.660;23.316;2023-07-31T01:07:03;94172.53;;;26.63;100.00
6090;BME280;3073;42.660;23.316;2023-07-31T01:09:41;94175.53;;;26.27;100.00
6090;BME280;3073;42.660;23.316;2023-07-31T01:12:13;94174.97;;;26.18;100.00
6090;BME280;3073;42.660;23.316;2023-07-31T01:14:42;94172.50;;;26.09;100.00
6090;BME280;3073;42.660;23.316;2023-07-31T01:17:18;94167.66;;;25.45;100.00
6090;BME280;3073;42.660;23.316;2023-07-31T01:19:45;94165.06;;;26.27;100.00
6090;BME280;3073;42.660;23.316;2023-07-31T01:22:27;94161.91;;;26.02;100.00
6090;BME280;3073;42.660;23.316;2023-07-31T01:25:06;94169.69;;;25.98;100.00
6090;BME280;3073;42.660;23.316;2023-07-31T01:27:43;94172.34;;;25.24;100.00
6090;BME280;3073;42.660;23.316;2023-07-31T01:30:13;94173.69;;;25.61;100.00
6090;BME280;3073;42.660;23.316;2023-07-31T01:32:43;94169.44;;;25.72;100.00
6090;BME280;3073;42.660;23.316;2023-07-31T01:35:10;94157.78;;;26.01;100.00
6090;BME280;3073;42.660;23.316;2023-07-31T01:37:37;94159.81;;;25.45;100.00
6090;BME280;3073;42.660;23.316;2023-07-31T01:40:06;94161.06;;;25.82;100.00
6090;BME280;3073;42.660;23.316;2023-07-31T01:42:33;94155.19;;;25.85;100.00
6090;BME280;3073;42.660;23.316;2023-07-31T01:45:01;94162.00;;;25.43;100.00
6090;BME280;3073;42.660;23.316;2023-07-31T01:47:28;94155.84;;;25.20;100.00
6090;BME280;3073;42.660;23.316;2023-07-31T01:49:55;94153.56;;;25.96;100.00
6090;BME280;3073;42.660;23.316;2023-07-31T01:52:21;94159.38;;;25.43;100.00
6090;BME280;3073;42.660;23.316;2023-07-31T01:54:48;94166.19;;;25.00;100.00
6090;BME280;3073;42.660;23.316;2023-07-31T01:57:15;94162.34;;;24.82;100.00
6090;BME280;3073;42.660;23.316;2023-07-31T01:59:42;94169.59;;;25.48;100.00
6090;BME280;3073;42.660;23.316;2023-07-31T02:02:10;94171.56;;;25.67;100.00
6090;BME280;3073;42.660;23.316;2023-07-31T02:04:37;94163.41;;;26.03;100.00
6090;BME280;3073;42.660;23.316;2023-07-31T02:07:05;94159.69;;;26.20;100.00
6090;BME280;3073;42.660;23.316;2023-07-31T02:09:32;94168.03;;;26.09;100.00
6090;BME280;3073;42.660;23.316;2023-07-31T02:11:59;94162.78;;;25.59;100.00
6090;BME280;3073;42.660;23.316;2023-07-31T02:14:25;94173.19;;;26.22;100.00
6090;BME280;3073;42.660;23.316;2023-07-31T02:16:52;94174.59;;;25.84;100.00
6090;BME280;3073;42.660;23.316;2023-07-31T02:19:20;94172.44;;;26.79;100.00
6090;BME280;3073;42.660;23.316;2023-07-31T02:21:47;94170.91;;;26.55;100.00
6090;BME280;3073;42.660;23.316;2023-07-31T02:24:14;94168.00;;;25.90;100.00
6090;BME280;3073;42.660;23.316;2023-07-31T02:26:41;94171.97;;;26.35;100.00
6090;BME280;3073;42.660;23.316;2023-07-31T02:29:08;94172.06;;;26.23;100.00
6090;BME280;3073;42.660;23.316;2023-07-31T02:31:35;94176.63;;;26.26;100.00
6090;BME280;3073;42.660;23.316;2023-07-31T02:34:02;94173.63;;;25.92;100.00
6090;BME280;3073;42.660;23.316;2023-07-31T02:36:30;94175.25;;;25.50;100.00
6090;BME280;3073;42.660;23.316;2023-07-31T02:38:56;94173.88;;;26.19;100.00
6090;BME280;3073;42.660;23.316;2023-07-31T02:41:23;94167.56;;;26.39;100.00
6090;BME280;3073;42.660;23.316;2023-07-31T02:43:50;94170.47;;;25.68;100.00
6090;BME280;3073;42.660;23.316;2023-07-31T02:46:17;94173.75;;;26.50;100.00
6090;BME280;3073;42.660;23.316;2023-07-31T02:48:44;94174.47;;;26.47;100.00
6090;BME280;3073;42.660;23.316;2023-07-31T02:51:11;94176.81;;;26.71;100.00
6090;BME280;3073;42.660;23.316;2023-07-31T02:53:39;94186.72;;;26.62;100.00
6090;BME280;3073;42.660;23.316;2023-07-31T02:56:06;94192.16;;;26.73;100.00
6090;BME280;3073;42.660;23.316;2023-07-31T02:58:33;94194.41;;;26.36;100.00
6090;BME280;3073;42.660;23.316;2023-07-31T03:00:59;94195.91;;;26.18;100.00
6090;BME280;3073;42.660;23.316;2023-07-31T03:03:27;94204.41;;;26.84;100.00
6090;BME280;3073;42.660;23.316;2023-07-31T03:05:54;94200.25;;;26.13;100.00
6090;BME280;3073;42.660;23.316;2023-07-31T03:08:21;94200.78;;;26.54;100.00
6090;BME280;3073;42.660;23.316;2023-07-31T03:10:49;94204.03;;;26.86;100.00
6090;BME280;3073;42.660;23.316;2023-07-31T03:13:16;94204.22;;;26.77;100.00
6090;BME280;3073;42.660;23.316;2023-07-31T03:15:43;94206.09;;;26.77;100.00
6090;BME280;3073;42.660;23.316;2023-07-31T03:18:10;94205.09;;;26.81;100.00
6090;BME280;3073;42.660;23.316;2023-07-31T03:20:37;94204.25;;;27.38;99.98
6090;BME280;3073;42.660;23.316;2023-07-31T03:23:03;94210.25;;;27.39;100.00
6090;BME280;3073;42.660;23.316;2023-07-31T03:25:30;94211.44;;;27.22;100.00
6090;BME280;3073;42.660;23.316;2023-07-31T03:27:58;94206.69;;;26.00;100.00
6090;BME280;3073;42.660;23.316;2023-07-31T03:30:25;94214.09;;;26.65;100.00
6090;BME280;3073;42.660;23.316;2023-07-31T03:32:52;94217.75;;;27.18;100.00
6090;BME280;3073;42.660;23.316;2023-07-31T03:35:19;94215.09;;;26.60;100.00
6090;BME280;3073;42.660;23.316;2023-07-31T03:37:46;94218.22;;;26.31;100.00
6090;BME280;3073;42.660;23.316;2023-07-31T03:40:13;94223.22;;;26.20;100.00
6090;BME280;3073;42.660;23.316;2023-07-31T03:42:39;94223.66;;;26.76;100.00
6090;BME280;3073;42.660;23.316;2023-07-31T03:45:09;94227.66;;;26.70;100.00
6090;BME280;3073;42.660;23.316;2023-07-31T03:47:36;94221.69;;;26.19;100.00
6090;BME280;3073;42.660;23.316;2023-07-31T03:50:03;94228.16;;;26.41;100.00
6090;BME280;3073;42.660;23.316;2023-07-31T03:52:30;94223.09;;;26.48;100.00
6090;BME280;3073;42.660;23.316;2023-07-31T03:54:57;94231.81;;;26.90;100.00
6090;BME280;3073;42.660;23.316;2023-07-31T03:57:24;94234.13;;;26.76;100.00
6090;BME280;3073;42.660;23.316;2023-07-31T03:59:50;94239.75;;;26.59;100.00
6090;BME280;3073;42.660;23.316;2023-07-31T04:02:19;94239.16;;;26.31;100.00
6090;BME280;3073;42.660;23.316;2023-07-31T04:04:45;94239.34;;;27.11;100.00
6090;BME280;3073;42.660;23.316;2023-07-31T04:07:12;94240.81;;;26.74;100.00
6090;BME280;3073;42.660;23.316;2023-07-31T04:09:39;94247.78;;;27.24;98.69
6090;BME280;3073;42.660;23.316;2023-07-31T04:12:06;94243.50;;;27.35;98.99
6090;BME280;3073;42.660;23.316;2023-07-31T04:14:33;94238.66;;;27.37;98.70
6090;BME280;3073;42.660;23.316;2023-07-31T04:17:00;94245.06;;;26.97;100.00
6090;BME280;3073;42.660;23.316;2023-07-31T04:19:29;94247.13;;;27.07;99.56
6090;BME280;3073;42.660;23.316;2023-07-31T04:21:55;94252.28;;;27.04;99.39
6090;BME280;3073;42.660;23.316;2023-07-31T04:24:22;94242.06;;;26.80;100.00
6090;BME280;3073;42.660;23.316;2023-07-31T04:26:50;94244.09;;;26.51;100.00
6090;BME280;3073;42.660;23.316;2023-07-31T04:29:17;94242.66;;;26.73;100.00
6090;BME280;3073;42.660;23.316;2023-07-31T04:31:44;94243.72;;;26.69;100.00
6090;BME280;3073;42.660;23.316;2023-07-31T04:34:11;94248.63;;;27.28;95.29
6090;BME280;3073;42.660;23.316;2023-07-31T04:36:39;94249.19;;;27.18;96.82
6090;BME280;3073;42.660;23.316;2023-07-31T04:39:06;94254.75;;;26.78;99.78
6090;BME280;3073;42.660;23.316;2023-07-31T04:41:32;94244.22;;;27.12;95.63
6090;BME280;3073;42.660;23.316;2023-07-31T04:43:59;94249.22;;;25.97;100.00
6090;BME280;3073;42.660;23.316;2023-07-31T04:46:26;94250.09;;;26.87;98.49
6090;BME280;3073;42.660;23.316;2023-07-31T04:48:53;94245.03;;;26.43;100.00
6090;BME280;3073;42.660;23.316;2023-07-31T04:51:19;94245.63;;;27.29;95.99
6090;BME280;3073;42.660;23.316;2023-07-31T04:53:48;94251.03;;;26.44;100.00
6090;BME280;3073;42.660;23.316;2023-07-31T04:56:15;94246.03;;;25.88;100.00
6090;BME280;3073;42.660;23.316;2023-07-31T04:58:42;94244.84;;;27.06;96.68
6090;BME280;3073;42.660;23.316;2023-07-31T05:01:09;94244.81;;;26.68;97.38
6090;BME280;3073;42.660;23.316;2023-07-31T05:03:35;94244.03;;;27.63;93.92
6090;BME280;3073;42.660;23.316;2023-07-31T05:06:02;94240.44;;;27.10;95.71
6090;BME280;3073;42.660;23.316;2023-07-31T05:08:29;94241.28;;;27.37;93.51
6090;BME280;3073;42.660;23.316;2023-07-31T05:10:57;94246.69;;;27.25;95.46
6090;BME280;3073;42.660;23.316;2023-07-31T05:13:24;94246.56;;;28.28;89.34
6090;BME280;3073;42.660;23.316;2023-07-31T05:15:51;94243.50;;;28.22;89.65
6090;BME280;3073;42.660;23.316;2023-07-31T05:18:17;94243.31;;;28.64;87.82
6090;BME280;3073;42.660;23.316;2023-07-31T05:20:44;94247.44;;;28.91;84.80
6090;BME280;3073;42.660;23.316;2023-07-31T05:23:11;94238.78;;;28.61;85.22
6090;BME280;3073;42.660;23.316;2023-07-31T05:25:37;94243.78;;;28.43;84.27
6090;BME280;3073;42.660;23.316;2023-07-31T05:28:06;94243.19;;;28.27;85.11
6090;BME280;3073;42.660;23.316;2023-07-31T05:30:32;94245.66;;;28.69;83.82
6090;BME280;3073;42.660;23.316;2023-07-31T05:32:59;94243.44;;;28.71;82.25
6090;BME280;3073;42.660;23.316;2023-07-31T05:35:26;94248.41;;;28.53;83.55
6090;BME280;3073;42.660;23.316;2023-07-31T05:37:53;94246.63;;;28.31;82.38
6090;BME280;3073;42.660;23.316;2023-07-31T05:40:20;94249.88;;;29.07;79.39
6090;BME280;3073;42.660;23.316;2023-07-31T05:42:46;94247.41;;;28.88;81.00
6090;BME280;3073;42.660;23.316;2023-07-31T05:45:14;94234.91;;;28.02;83.58
6090;BME280;3073;42.660;23.316;2023-07-31T05:47:41;94231.81;;;28.46;80.95
6090;BME280;3073;42.660;23.316;2023-07-31T05:50:09;94242.72;;;27.99;82.51
6090;BME280;3073;42.660;23.316;2023-07-31T05:52:35;94248.91;;;27.87;79.80
6090;BME280;3073;42.660;23.316;2023-07-31T05:55:02;94246.06;;;28.45;75.99
6090;BME280;3073;42.660;23.316;2023-07-31T05:57:29;94257.31;;;27.96;75.98
6090;BME280;3073;42.660;23.316;2023-07-31T05:59:56;94249.25;;;28.31;75.22
6090;BME280;3073;42.660;23.316;2023-07-31T06:02:24;94254.00;;;28.22;74.34
6090;BME280;3073;42.660;23.316;2023-07-31T06:04:51;94259.16;;;29.31;70.77
6090;BME280;3073;42.660;23.316;2023-07-31T06:07:18;94257.22;;;29.61;67.26
6090;BME280;3073;42.660;23.316;2023-07-31T06:09:44;94258.81;;;29.02;68.66
6090;BME280;3073;42.660;23.316;2023-07-31T06:12:11;94263.31;;;30.67;61.68
6090;BME280;3073;42.660;23.316;2023-07-31T06:14:38;94263.97;;;30.50;63.40
6090;BME280;3073;42.660;23.316;2023-07-31T06:17:05;94261.84;;;30.73;60.28
6090;BME280;3073;42.660;23.316;2023-07-31T06:19:33;94262.88;;;31.41;57.07
6090;BME280;3073;42.660;23.316;2023-07-31T06:22:00;94258.47;;;31.87;55.43
6090;BME280;3073;42.660;23.316;2023-07-31T06:24:28;94255.78;;;31.55;55.95
6090;BME280;3073;42.660;23.316;2023-07-31T06:26:55;94265.22;;;30.19;58.82
6090;BME280;3073;42.660;23.316;2023-07-31T06:29:23;94261.50;;;30.20;58.73
6090;BME280;3073;42.660;23.316;2023-07-31T06:31:49;94260.59;;;29.98;58.10
6090;BME280;3073;42.660;23.316;2023-07-31T06:34:17;94257.69;;;29.70;60.00
6090;BME280;3073;42.660;23.316;2023-07-31T06:36:45;94260.28;;;29.30;60.38
6090;BME280;3073;42.660;23.316;2023-07-31T06:39:11;94258.16;;;29.42;61.17
6090;BME280;3073;42.660;23.316;2023-07-31T06:41:38;94253.44;;;30.50;59.27
6090;BME280;3073;42.660;23.316;2023-07-31T06:44:05;94255.19;;;30.32;59.31
6090;BME280;3073;42.660;23.316;2023-07-31T06:46:32;94255.50;;;30.23;59.15
6090;BME280;3073;42.660;23.316;2023-07-31T06:48:59;94266.53;;;29.88;60.93
6090;BME280;3073;42.660;23.316;2023-07-31T06:51:26;94268.66;;;29.79;61.38
6090;BME280;3073;42.660;23.316;2023-07-31T06:53:54;94266.84;;;29.46;62.97
6090;BME280;3073;42.660;23.316;2023-07-31T06:56:21;94265.63;;;29.07;65.08
6090;BME280;3073;42.660;23.316;2023-07-31T06:58:47;94266.97;;;28.94;64.79
6090;BME280;3073;42.660;23.316;2023-07-31T07:01:14;94272.66;;;28.43;65.23
6090;BME280;3073;42.660;23.316;2023-07-31T07:03:41;94255.97;;;28.29;66.79
6090;BME280;3073;42.660;23.316;2023-07-31T07:06:08;94257.72;;;29.37;62.48
6090;BME280;3073;42.660;23.316;2023-07-31T07:08:34;94259.56;;;29.03;62.46
6090;BME280;3073;42.660;23.316;2023-07-31T07:11:02;94257.44;;;29.86;59.55
6090;BME280;3073;42.660;23.316;2023-07-31T07:13:29;94260.19;;;30.44;57.62
6090;BME280;3073;42.660;23.316;2023-07-31T07:15:56;94265.69;;;30.93;55.53
6090;BME280;3073;42.660;23.316;2023-07-31T07:18:23;94264.50;;;32.02;53.49
6090;BME280;3073;42.660;23.316;2023-07-31T07:20:51;94270.78;;;32.96;50.36
6090;BME280;3073;42.660;23.316;2023-07-31T07:23:17;94267.38;;;31.30;52.97
6090;BME280;3073;42.660;23.316;2023-07-31T07:25:45;94269.03;;;32.30;50.63
6090;BME280;3073;42.660;23.316;2023-07-31T07:28:13;94261.09;;;32.61;49.64
6090;BME280;3073;42.660;23.316;2023-07-31T07:30:40;94258.09;;;33.50;48.01
6090;BME280;3073;42.660;23.316;2023-07-31T07:33:07;94254.13;;;33.17;48.63
6090;BME280;3073;42.660;23.316;2023-07-31T07:35:34;94262.63;;;32.27;49.94
6090;BME280;3073;42.660;23.316;2023-07-31T07:38:01;94253.44;;;31.22;52.66
6090;BME280;3073;42.660;23.316;2023-07-31T07:40:29;94254.31;;;30.72;54.19
6090;BME280;3073;42.660;23.316;2023-07-31T07:42:55;94259.78;;;31.10;52.46
6090;BME280;3073;42.660;23.316;2023-07-31T07:45:24;94266.66;;;31.47;52.67
6090;BME280;3073;42.660;23.316;2023-07-31T07:47:51;94266.34;;;31.70;51.16
6090;BME280;3073;42.660;23.316;2023-07-31T07:50:19;94278.84;;;30.25;53.96
6090;BME280;3073;42.660;23.316;2023-07-31T07:52:45;94272.75;;;30.68;53.54
6090;BME280;3073;42.660;23.316;2023-07-31T07:55:12;94268.25;;;31.94;50.29
6090;BME280;3073;42.660;23.316;2023-07-31T07:57:39;94275.69;;;33.01;48.32
6090;BME280;3073;42.660;23.316;2023-07-31T08:00:07;94270.88;;;32.72;48.41
6090;BME280;3073;42.660;23.316;2023-07-31T08:02:37;94279.91;;;33.75;45.76
6090;BME280;3073;42.660;23.316;2023-07-31T08:05:04;94282.63;;;32.42;46.79
6090;BME280;3073;42.660;23.316;2023-07-31T08:07:31;94282.59;;;32.71;46.72
6090;BME280;3073;42.660;23.316;2023-07-31T08:09:58;94277.69;;;31.77;48.59
6090;BME280;3073;42.660;23.316;2023-07-31T08:12:24;94273.53;;;30.79;51.26
6090;BME280;3073;42.660;23.316;2023-07-31T08:14:51;94275.25;;;31.23;49.66
6090;BME280;3073;42.660;23.316;2023-07-31T08:17:18;94278.53;;;30.95;50.37
6090;BME280;3073;42.660;23.316;2023-07-31T08:19:46;94287.75;;;33.17;47.58
6090;BME280;3073;42.660;23.316;2023-07-31T08:22:13;94269.75;;;31.77;48.70
6090;BME280;3073;42.660;23.316;2023-07-31T08:24:39;94270.91;;;31.87;48.40
6090;BME280;3073;42.660;23.316;2023-07-31T08:27:06;94275.25;;;33.21;46.42
6090;BME280;3073;42.660;23.316;2023-07-31T08:29:33;94279.09;;;33.85;45.09
6090;BME280;3073;42.660;23.316;2023-07-31T08:32:00;94282.97;;;33.70;44.65
6090;BME280;3073;42.660;23.316;2023-07-31T08:34:26;94272.72;;;33.79;43.79
6090;BME280;3073;42.660;23.316;2023-07-31T08:36:55;94274.75;;;33.50;44.55
6090;BME280;3073;42.660;23.316;2023-07-31T08:39:21;94275.63;;;33.95;43.45
6090;BME280;3073;42.660;23.316;2023-07-31T08:41:48;94273.81;;;35.42;41.89
6090;BME280;3073;42.660;23.316;2023-07-31T08:44:15;94270.91;;;33.66;43.10
6090;BME280;3073;42.660;23.316;2023-07-31T08:46:45;94278.09;;;34.17;42.99
6090;BME280;3073;42.660;23.316;2023-07-31T08:49:13;94273.06;;;33.81;44.18
6090;BME280;3073;42.660;23.316;2023-07-31T08:51:41;94280.34;;;33.67;44.22
6090;BME280;3073;42.660;23.316;2023-07-31T08:54:09;94271.94;;;35.08;42.02
6090;BME280;3073;42.660;23.316;2023-07-31T08:56:36;94275.59;;;33.26;44.70
6090;BME280;3073;42.660;23.316;2023-07-31T08:59:04;94277.28;;;32.56;45.33
6090;BME280;3073;42.660;23.316;2023-07-31T09:01:33;94280.34;;;32.34;45.52
6090;BME280;3073;42.660;23.316;2023-07-31T09:04:04;94281.72;;;33.05;44.47
6090;BME280;3073;42.660;23.316;2023-07-31T09:06:32;94280.84;;;34.06;42.71
6090;BME280;3073;42.660;23.316;2023-07-31T09:09:00;94276.59;;;34.19;41.80
6090;BME280;3073;42.660;23.316;2023-07-31T09:11:28;94277.00;;;34.58;41.90
6090;BME280;3073;42.660;23.316;2023-07-31T09:13:57;94274.03;;;34.05;41.28
6090;BME280;3073;42.660;23.316;2023-07-31T09:16:28;94271.66;;;32.33;43.32
6090;BME280;3073;42.660;23.316;2023-07-31T09:18:57;94266.75;;;32.03;44.13
6090;BME280;3073;42.660;23.316;2023-07-31T09:21:27;94262.88;;;33.76;41.85
6090;BME280;3073;42.660;23.316;2023-07-31T09:23:54;94256.69;;;33.31;42.29
6090;BME280;3073;42.660;23.316;2023-07-31T09:26:33;94255.66;;;33.80;42.13
6090;BME280;3073;42.660;23.316;2023-07-31T09:29:01;94253.09;;;34.21;41.88
6090;BME280;3073;42.660;23.316;2023-07-31T09:31:38;94247.41;;;32.88;44.30
6090;BME280;3073;42.660;23.316;2023-07-31T09:34:07;94247.19;;;33.41;42.99
6090;BME280;3073;42.660;23.316;2023-07-31T09:36:40;94241.47;;;32.38;44.97
6090;BME280;3073;42.660;23.316;2023-07-31T09:39:09;94235.81;;;31.93;45.47
6090;BME280;3073;42.660;23.316;2023-07-31T09:41:38;94240.66;;;33.59;43.86
6090;BME280;3073;42.660;23.316;2023-07-31T09:44:05;94250.16;;;34.12;42.77
6090;BME280;3073;42.660;23.316;2023-07-31T09:46:35;94236.97;;;34.46;41.30
6090;BME280;3073;42.660;23.316;2023-07-31T09:49:04;94234.28;;;34.12;41.45
6090;BME280;3073;42.660;23.316;2023-07-31T09:51:31;94239.59;;;32.49;44.68
6090;BME280;3073;42.660;23.316;2023-07-31T09:54:04;94225.28;;;32.32;44.86
6090;BME280;3073;42.660;23.316;2023-07-31T09:56:37;94240.16;;;33.06;43.32
6090;BME280;3073;42.660;23.316;2023-07-31T09:59:08;94227.38;;;34.22;41.56
6090;BME280;3073;42.660;23.316;2023-07-31T10:01:37;94224.88;;;32.30;43.67
6090;BME280;3073;42.660;23.316;2023-07-31T10:04:05;94225.03;;;35.32;39.89
6090;BME280;3073;42.660;23.316;2023-07-31T10:06:35;94235.66;;;34.64;40.19
6090;BME280;3073;42.660;23.316;2023-07-31T10:09:03;94231.28;;;34.47;39.58
6090;BME280;3073;42.660;23.316;2023-07-31T10:11:34;94226.22;;;34.60;40.65
6090;BME280;3073;42.660;23.316;2023-07-31T10:14:07;94234.69;;;34.48;39.94
6090;BME280;3073;42.660;23.316;2023-07-31T10:16:35;94237.00;;;35.44;39.69
6090;BME280;3073;42.660;23.316;2023-07-31T10:19:02;94233.69;;;36.79;35.79
6090;BME280;3073;42.660;23.316;2023-07-31T10:21:30;94231.13;;;36.33;36.72
6090;BME280;3073;42.660;23.316;2023-07-31T10:24:02;94224.50;;;35.94;37.98
6090;BME280;3073;42.660;23.316;2023-07-31T10:26:31;94220.25;;;36.24;36.69
6090;BME280;3073;42.660;23.316;2023-07-31T10:28:58;94227.81;;;36.88;35.63
6090;BME280;3073;42.660;23.316;2023-07-31T10:31:27;94213.91;;;36.37;36.35
6090;BME280;3073;42.660;23.316;2023-07-31T10:33:55;94221.69;;;37.10;35.91
6090;BME280;3073;42.660;23.316;2023-07-31T10:36:23;94223.84;;;33.87;40.56
6090;BME280;3073;42.660;23.316;2023-07-31T10:38:51;94220.63;;;32.82;41.69
6090;BME280;3073;42.660;23.316;2023-07-31T10:41:18;94214.94;;;34.52;39.84
6090;BME280;3073;42.660;23.316;2023-07-31T10:43:46;94210.91;;;35.39;38.48
6090;BME280;3073;42.660;23.316;2023-07-31T10:46:13;94220.00;;;34.77;38.53
6090;BME280;3073;42.660;23.316;2023-07-31T10:48:42;94221.63;;;35.58;37.00
6090;BME280;3073;42.660;23.316;2023-07-31T10:51:10;94222.19;;;36.66;35.68
6090;BME280;3073;42.660;23.316;2023-07-31T10:53:39;94208.84;;;35.50;37.18
6090;BME280;3073;42.660;23.316;2023-07-31T10:56:08;94207.38;;;34.51;37.96
6090;BME280;3073;42.660;23.316;2023-07-31T10:58:36;94203.75;;;35.05;37.55
6090;BME280;3073;42.660;23.316;2023-07-31T11:01:04;94203.78;;;36.32;35.68
6090;BME280;3073;42.660;23.316;2023-07-31T11:03:43;94198.53;;;36.29;35.55
6090;BME280;3073;42.660;23.316;2023-07-31T11:06:10;94195.31;;;35.41;35.72
6090;BME280;3073;42.660;23.316;2023-07-31T11:08:41;94188.34;;;34.26;37.31
6090;BME280;3073;42.660;23.316;2023-07-31T11:11:10;94184.56;;;33.82;38.08
6090;BME280;3073;42.660;23.316;2023-07-31T11:13:42;94186.44;;;35.51;36.14
6090;BME280;3073;42.660;23.316;2023-07-31T11:16:10;94180.75;;;36.45;34.23
6090;BME280;3073;42.660;23.316;2023-07-31T11:18:39;94186.00;;;34.69;35.12
6090;BME280;3073;42.660;23.316;2023-07-31T11:21:08;94186.91;;;35.46;34.57
6090;BME280;3073;42.660;23.316;2023-07-31T11:23:38;94182.72;;;35.22;34.85
6090;BME280;3073;42.660;23.316;2023-07-31T11:26:05;94185.69;;;36.00;34.06
6090;BME280;3073;42.660;23.316;2023-07-31T11:28:33;94180.91;;;36.15;33.77
6090;BME280;3073;42.660;23.316;2023-07-31T11:31:01;94189.69;;;36.75;33.26
6090;BME280;3073;42.660;23.316;2023-07-31T11:33:28;94188.88;;;36.15;34.82
6090;BME280;3073;42.660;23.316;2023-07-31T11:35:55;94178.34;;;36.51;33.79
6090;BME280;3073;42.660;23.316;2023-07-31T11:38:24;94184.78;;;36.93;32.88
6090;BME280;3073;42.660;23.316;2023-07-31T11:40:51;94183.16;;;36.17;34.31
6090;BME280;3073;42.660;23.316;2023-07-31T11:43:19;94194.66;;;36.92;34.18
6090;BME280;3073;42.660;23.316;2023-07-31T11:45:47;94186.31;;;37.46;33.70
6090;BME280;3073;42.660;23.316;2023-07-31T11:48:22;94185.00;;;38.19;33.40
6090;BME280;3073;42.660;23.316;2023-07-31T11:50:50;94183.47;;;38.18;33.32
6090;BME280;3073;42.660;23.316;2023-07-31T11:53:19;94181.84;;;36.87;33.57
6090;BME280;3073;42.660;23.316;2023-07-31T11:55:49;94176.59;;;36.64;33.81
6090;BME280;3073;42.660;23.316;2023-07-31T11:58:17;94176.34;;;36.58;33.45
6090;BME280;3073;42.660;23.316;2023-07-31T12:00:44;94182.22;;;37.41;33.15
6090;BME280;3073;42.660;23.316;2023-07-31T12:03:12;94181.59;;;37.86;32.88
6090;BME280;3073;42.660;23.316;2023-07-31T12:05:39;94169.63;;;35.84;34.52
6090;BME280;3073;42.660;23.316;2023-07-31T12:08:10;94172.19;;;37.81;32.84
6090;BME280;3073;42.660;23.316;2023-07-31T12:10:37;94169.16;;;39.10;31.28
6090;BME280;3073;42.660;23.316;2023-07-31T12:13:08;94164.03;;;39.67;30.58
6090;BME280;3073;42.660;23.316;2023-07-31T12:15:39;94159.13;;;37.54;32.21
6090;BME280;3073;42.660;23.316;2023-07-31T12:18:09;94160.25;;;38.47;31.93
6090;BME280;3073;42.660;23.316;2023-07-31T12:20:40;94153.56;;;39.09;31.62
6090;BME280;3073;42.660;23.316;2023-07-31T12:23:07;94151.97;;;39.37;31.33
6090;BME280;3073;42.660;23.316;2023-07-31T12:25:34;94156.56;;;39.11;32.23
6090;BME280;3073;42.660;23.316;2023-07-31T12:28:07;94158.00;;;37.36;33.61
6090;BME280;3073;42.660;23.316;2023-07-31T12:30:37;94156.25;;;36.93;34.05
6090;BME280;3073;42.660;23.316;2023-07-31T12:33:05;94160.31;;;37.18;33.90
6090;BME280;3073;42.660;23.316;2023-07-31T12:35:37;94161.59;;;37.29;33.50
6090;BME280;3073;42.660;23.316;2023-07-31T12:38:04;94157.78;;;37.95;32.70
6090;BME280;3073;42.660;23.316;2023-07-31T12:40:31;94155.03;;;37.50;32.83
6090;BME280;3073;42.660;23.316;2023-07-31T12:42:58;94152.56;;;37.59;32.71
6090;BME280;3073;42.660;23.316;2023-07-31T12:45:28;94145.22;;;37.79;32.24
6090;BME280;3073;42.660;23.316;2023-07-31T12:47:55;94149.22;;;36.83;33.21
6090;BME280;3073;42.660;23.316;2023-07-31T12:50:22;94145.44;;;35.55;34.07
6090;BME280;3073;42.660;23.316;2023-07-31T12:52:49;94135.63;;;36.42;32.95
6090;BME280;3073;42.660;23.316;2023-07-31T12:55:15;94135.16;;;35.81;33.75
6090;BME280;3073;42.660;23.316;2023-07-31T12:57:44;94135.09;;;37.06;32.70
6090;BME280;3073;42.660;23.316;2023-07-31T13:00:12;94138.06;;;36.72;33.45
6090;BME280;3073;42.660;23.316;2023-07-31T13:02:40;94133.13;;;37.42;33.04
6090;BME280;3073;42.660;23.316;2023-07-31T13:05:08;94131.53;;;38.09;31.29
6090;BME280;3073;42.660;23.316;2023-07-31T13:07:35;94123.31;;;38.17;32.21
6090;BME280;3073;42.660;23.316;2023-07-31T13:10:01;94122.41;;;37.62;32.39